Time;durP1;ratioP1;P1;durP2;ratioP2;P2;SDS_P1;SDS_P2;PMS_P1;PMS_P2;Temp;Humidity;BMP_temperature;BMP_pressure;BME280_temperature;BME280_humidity;BME280_pressure;Samples;Min_cycle;Max_cycle;Signal;HPM_P1;HPM_P2
2023/03/16 00:01:31;;;;;;;13.15;12.00;;;4.60;53.70;;;;;;21377;6636;67037;-72
2023/03/16 00:03:58;;;;;;;13.43;12.05;;;4.60;53.40;;;;;;21373;6638;67166;-72
2023/03/16 00:06:24;;;;;;;16.25;14.65;;;4.50;53.80;;;;;;21155;6634;304389;-72
2023/03/16 00:08:50;;;;;;;15.13;13.90;;;4.50;53.80;;;;;;21176;6634;293905;-75
2023/03/16 00:11:15;;;;;;;13.52;12.27;;;4.90;53.20;;;;;;21383;6634;70117;-71
2023/03/16 00:13:41;;;;;;;12.07;11.07;;;4.80;52.90;;;;;;21393;6634;68120;-72
2023/03/16 00:16:07;;;;;;;11.35;10.45;;;4.40;54.00;;;;;;21391;6632;66604;-72
2023/03/16 00:18:40;;;;;;;13.83;12.73;;;4.40;54.00;;;;;;21170;6633;272310;-72
2023/03/16 00:21:04;;;;;;;15.13;13.90;;;4.60;54.20;;;;;;21141;6634;274924;-72
2023/03/16 00:23:34;;;;;;;13.13;12.23;;;5.20;51.80;;;;;;21167;6634;271475;-73
2023/03/16 00:26:01;;;;;;;12.93;11.80;;;5.20;51.80;;;;;;21375;6634;67270;-73
2023/03/16 00:28:24;;;;;;;12.27;11.17;;;5.10;51.90;;;;;;21390;6634;71053;-73
2023/03/16 00:30:57;;;;;;;13.45;12.45;;;4.90;52.20;;;;;;21168;6634;308448;-73
2023/03/16 00:33:18;;;;;;;10.77;9.87;;;4.80;52.30;;;;;;21370;6634;66666;-73
2023/03/16 00:36:00;;;;;;;9.87;8.97;;;4.80;52.30;;;;;;21340;6651;66725;-73
2023/03/16 00:38:16;;;;;;;9.60;8.90;;;4.60;53.00;;;;;;21310;6651;67250;-72
2023/03/16 00:40:42;;;;;;;11.53;10.33;;;4.40;53.50;;;;;;21333;6651;66781;-72
2023/03/16 00:43:08;;;;;;;9.10;8.30;;;4.20;54.30;;;;;;21312;6651;67203;-73
2023/03/16 00:45:34;;;;;;;10.63;9.67;;;4.20;54.30;;;;;;21366;6642;66732;-72
2023/03/16 00:48:00;;;;;;;12.25;11.15;;;4.10;54.50;;;;;;21125;6651;272798;-72
2023/03/16 00:50:25;;;;;;;13.60;12.40;;;4.30;53.70;;;;;;21116;6651;301203;-72
2023/03/16 00:52:52;;;;;;;12.20;11.20;;;4.60;52.70;;;;;;21104;6651;305290;-72
2023/03/16 00:55:17;;;;;;;11.52;10.65;;;5.00;52.20;;;;;;21110;6653;277232;-72
2023/03/16 00:57:41;;;;;;;12.68;11.57;;;5.20;51.60;;;;;;21199;6624;300904;-72
2023/03/16 01:00:11;;;;;;;15.70;11.67;;;5.20;50.80;;;;;;21426;6625;66123;-74
2023/03/16 01:02:35;;;;;;;18.93;14.47;;;5.10;50.70;;;;;;21182;6625;299596;-72
2023/03/16 01:05:00;;;;;;;16.77;15.10;;;5.10;50.40;;;;;;21207;6625;271979;-72
2023/03/16 01:07:25;;;;;;;16.83;15.33;;;5.20;50.30;;;;;;21187;6625;288952;-72
2023/03/16 01:09:51;;;;;;;13.93;12.57;;;5.00;50.80;;;;;;21338;6653;66826;-71
2023/03/16 01:12:17;;;;;;;13.83;11.17;;;5.00;50.80;;;;;;21388;6634;67534;-72
2023/03/16 01:14:44;;;;;;;11.07;10.27;;;4.70;51.60;;;;;;21386;6634;69357;-72
2023/03/16 01:17:08;;;;;;;13.93;12.60;;;4.30;52.30;;;;;;21181;6634;276672;-72
2023/03/16 01:19:34;;;;;;;13.77;12.57;;;4.40;52.80;;;;;;21179;6634;305034;-71
2023/03/16 01:22:03;;;;;;;14.73;13.02;;;4.60;51.80;;;;;;21384;6634;66598;-72
2023/03/16 01:24:28;;;;;;;12.82;11.60;;;4.60;52.30;;;;;;21175;6634;300027;-72
2023/03/16 01:26:54;;;;;;;11.07;10.10;;;4.70;52.50;;;;;;21380;6632;71669;-71
2023/03/16 01:29:19;;;;;;;10.17;9.17;;;4.60;52.50;;;;;;21399;6633;66263;-71
2023/03/16 01:31:46;;;;;;;9.57;8.70;;;4.10;53.60;;;;;;21332;6651;66794;-71
2023/03/16 01:34:15;;;;;;;11.67;10.70;;;4.10;53.30;;;;;;21154;6642;307113;-72
2023/03/16 01:36:37;;;;;;;9.90;8.90;;;4.20;53.40;;;;;;21377;6636;66560;-72
2023/03/16 01:39:02;;;;;;;11.18;10.30;;;4.20;53.30;;;;;;21149;6638;305889;-72
2023/03/16 01:41:28;;;;;;;9.63;8.77;;;4.30;53.10;;;;;;21380;6636;66692;-72
2023/03/16 01:43:57;;;;;;;8.90;8.20;;;4.20;52.90;;;;;;21392;6636;66630;-72
2023/03/16 01:46:20;;;;;;;11.93;10.83;;;4.00;53.20;;;;;;21110;6651;301065;-72
2023/03/16 01:48:51;;;;;;;9.97;9.13;;;4.20;54.00;;;;;;21336;6653;69926;-71
2023/03/16 01:51:23;;;;;;;11.32;10.50;;;4.20;53.80;;;;;;21194;6624;273786;-73
2023/03/16 01:53:48;;;;;;;11.43;10.53;;;4.30;53.40;;;;;;20838;6625;273597;-73
2023/03/16 01:56:14;;;;;;;11.82;10.95;;;4.60;52.70;;;;;;21183;6625;301181;-73
2023/03/16 01:58:40;;;;;;;9.73;8.98;;;4.80;52.30;;;;;;21395;6625;66509;-73
2023/03/16 02:01:05;;;;;;;10.10;9.20;;;4.70;52.30;;;;;;21319;6651;66721;-73
2023/03/16 02:03:35;;;;;;;9.55;8.80;;;4.40;52.90;;;;;;21333;6651;75439;-73
2023/03/16 02:06:07;;;;;;;8.57;7.93;;;4.10;53.50;;;;;;21320;6651;66779;-72
2023/03/16 02:08:32;;;;;;;9.33;8.53;;;3.90;53.90;;;;;;21329;6651;66826;-73
2023/03/16 02:10:58;;;;;;;9.75;8.95;;;3.70;54.30;;;;;;21296;6651;66936;-73
2023/03/16 02:13:23;;;;;;;11.77;10.80;;;3.60;54.70;;;;;;21082;6651;272487;-72
2023/03/16 02:15:53;;;;;;;10.23;9.45;;;3.80;54.10;;;;;;21278;6651;67132;-73
2023/03/16 02:18:18;;;;;;;12.37;11.37;;;3.80;54.80;;;;;;21104;6651;286853;-72
2023/03/16 02:20:51;;;;;;;13.45;12.45;;;4.30;53.20;;;;;;21113;6651;331463;-72
2023/03/16 02:23:17;;;;;;;10.30;9.47;;;4.20;52.90;;;;;;21320;6638;66770;-72
2023/03/16 02:26:02;;;;;;;11.85;10.95;;;4.20;52.90;;;;;;21155;6634;328988;-72
2023/03/16 02:28:47;;;;;;;12.53;11.47;;;4.60;52.50;;;;;;21144;6634;297556;-73
2023/03/16 02:31:12;;;;;;;12.30;11.40;;;4.80;51.70;;;;;;21130;6634;275616;-73
2023/03/16 02:33:37;;;;;;;11.33;10.53;;;4.80;51.70;;;;;;21171;6634;273945;-74
2023/03/16 02:36:03;;;;;;;12.07;10.97;;;4.90;52.20;;;;;;21155;6634;275186;-76
2023/03/16 02:38:28;;;;;;;12.23;11.30;;;5.10;51.00;;;;;;21169;6632;271992;-73
2023/03/16 02:41:11;;;;;;;12.27;11.23;;;5.10;50.40;;;;;;21170;6633;271522;-73
2023/03/16 02:43:37;;;;;;;12.57;11.57;;;5.20;50.10;;;;;;21177;6633;291212;-72
2023/03/16 02:46:03;;;;;;;11.00;10.10;;;5.20;49.80;;;;;;21398;6634;67132;-72
2023/03/16 02:48:32;;;;;;;10.20;9.40;;;4.90;50.20;;;;;;21340;6651;66647;-72
2023/03/16 02:50:57;;;;;;;10.10;9.10;;;4.50;51.10;;;;;;21320;6651;66970;-72
2023/03/16 02:53:23;;;;;;;10.88;9.88;;;4.10;51.70;;;;;;21319;6651;66271;-74
2023/03/16 02:55:49;;;;;;;11.98;10.70;;;3.60;52.90;;;;;;21327;6651;66817;-74
2023/03/16 02:58:15;;;;;;;10.73;9.73;;;3.60;52.80;;;;;;21222;6651;69310;-72
2023/03/16 03:00:41;;;;;;;10.03;9.23;;;3.30;54.00;;;;;;21288;6651;66769;-73
2023/03/16 03:03:08;;;;;;;12.77;11.70;;;3.30;53.90;;;;;;21120;6651;273861;-72
2023/03/16 03:05:32;;;;;;;9.90;9.07;;;3.60;54.20;;;;;;21256;6651;66362;-72
2023/03/16 03:07:59;;;;;;;11.00;10.10;;;3.60;53.70;;;;;;21346;6642;66560;-71
2023/03/16 03:10:25;;;;;;;11.98;11.07;;;3.50;53.90;;;;;;21151;6636;334833;-72
2023/03/16 03:12:50;;;;;;;12.83;11.90;;;3.60;53.70;;;;;;21143;6638;305176;-72
2023/03/16 03:15:17;;;;;;;10.82;9.88;;;4.00;52.80;;;;;;21395;6634;66101;-72
2023/03/16 03:17:43;;;;;;;13.50;12.40;;;4.10;52.50;;;;;;21128;6651;273858;-73
2023/03/16 03:20:16;;;;;;;11.60;10.50;;;4.00;52.40;;;;;;21315;6651;66782;-72
2023/03/16 03:22:41;;;;;;;11.53;10.40;;;4.00;52.30;;;;;;21327;6651;66514;-72
2023/03/16 03:25:07;;;;;;;10.02;9.05;;;3.70;52.70;;;;;;21329;6651;67458;-73
2023/03/16 03:27:32;;;;;;;13.17;12.07;;;3.50;53.30;;;;;;21090;6653;331104;-74
2023/03/16 03:29:58;;;;;;;13.98;12.88;;;3.60;53.30;;;;;;21152;6636;302010;-72
2023/03/16 03:32:23;;;;;;;13.85;12.65;;;4.00;52.00;;;;;;21071;6653;324033;-72
2023/03/16 03:34:49;;;;;;;10.63;9.80;;;4.30;50.70;;;;;;21410;6624;66615;-72
2023/03/16 03:37:15;;;;;;;11.00;10.07;;;3.80;51.60;;;;;;21306;6651;66724;-71
2023/03/16 03:39:41;;;;;;;9.83;9.07;;;3.80;52.30;;;;;;21295;6651;67120;-72
2023/03/16 03:42:07;;;;;;;10.50;9.60;;;3.40;53.70;;;;;;21318;6651;69003;-72
2023/03/16 03:44:36;;;;;;;10.87;9.87;;;3.30;52.90;;;;;;21370;6638;66786;-72
2023/03/16 03:47:01;;;;;;;14.43;13.27;;;3.20;53.30;;;;;;21102;6651;292066;-71
2023/03/16 03:49:27;;;;;;;10.77;9.98;;;3.40;53.80;;;;;;21328;6650;67226;-72
2023/03/16 03:51:52;;;;;;;11.50;10.50;;;3.50;53.70;;;;;;21318;6650;66341;-72
2023/03/16 03:54:18;;;;;;;10.23;9.50;;;3.40;54.00;;;;;;21311;6651;66752;-72
2023/03/16 03:56:45;;;;;;;13.50;12.40;;;3.30;54.30;;;;;;21088;6653;304182;-72
2023/03/16 03:59:10;;;;;;;13.68;12.57;;;3.50;54.40;;;;;;21173;6624;272275;-72
2023/03/16 04:01:36;;;;;;;14.40;13.35;;;3.90;53.10;;;;;;21169;6625;283475;-72
2023/03/16 04:04:01;;;;;;;12.40;11.30;;;4.20;51.70;;;;;;21324;6653;70682;-72
2023/03/16 04:06:27;;;;;;;14.20;13.20;;;4.10;51.60;;;;;;21154;6634;329550;-71
2023/03/16 04:08:53;;;;;;;12.50;11.50;;;4.20;51.90;;;;;;21401;6634;67596;-72
2023/03/16 04:11:18;;;;;;;13.77;12.57;;;4.00;51.90;;;;;;21164;6634;272991;-72
2023/03/16 04:13:44;;;;;;;10.80;10.00;;;4.10;51.90;;;;;;21385;6634;67634;-72
2023/03/16 04:16:14;;;;;;;13.62;12.63;;;4.10;51.30;;;;;;21177;6634;273313;-72
2023/03/16 04:18:38;;;;;;;14.98;13.80;;;4.40;50.60;;;;;;21138;6634;270606;-71
2023/03/16 04:21:03;;;;;;;15.20;13.90;;;4.30;50.50;;;;;;21124;6634;305989;-72
2023/03/16 04:23:32;;;;;;;13.03;11.80;;;4.30;50.10;;;;;;21314;6634;66579;-74
2023/03/16 04:25:55;;;;;;;12.00;11.07;;;4.30;50.00;;;;;;21364;6634;66886;-72
2023/03/16 04:28:21;;;;;;;11.70;10.70;;;3.90;50.60;;;;;;21379;6634;66396;-72
2023/03/16 04:30:46;;;;;;;14.03;12.93;;;3.60;51.40;;;;;;21152;6634;334425;-72
2023/03/16 04:33:13;;;;;;;14.30;13.30;;;3.70;52.50;;;;;;21157;6634;299580;-72
2023/03/16 04:35:37;;;;;;;12.48;11.38;;;4.00;52.10;;;;;;21382;6634;67362;-72
2023/03/16 04:38:03;;;;;;;11.17;10.37;;;4.00;51.90;;;;;;21379;6634;74994;-73
2023/03/16 04:40:29;;;;;;;11.27;10.38;;;3.70;52.10;;;;;;21380;6634;66905;-69
2023/03/16 04:42:54;;;;;;;11.50;10.50;;;3.50;52.60;;;;;;21373;6634;69861;-68
2023/03/16 04:45:20;;;;;;;10.77;9.85;;;3.30;53.30;;;;;;21379;6634;66676;-70
2023/03/16 04:47:45;;;;;;;11.50;10.30;;;3.10;53.70;;;;;;21320;6651;66862;-69
2023/03/16 04:50:11;;;;;;;11.57;10.57;;;3.00;54.00;;;;;;21322;6653;66328;-69
2023/03/16 04:52:36;;;;;;;12.20;11.20;;;3.00;54.20;;;;;;21418;6624;66375;-70
2023/03/16 04:55:02;;;;;;;11.50;10.40;;;2.80;54.10;;;;;;21409;6625;66213;-71
2023/03/16 04:57:28;;;;;;;16.52;15.23;;;2.70;54.30;;;;;;21115;6653;301575;-70
2023/03/16 04:59:53;;;;;;;17.10;15.70;;;3.00;54.20;;;;;;21166;6634;328325;-71
2023/03/16 05:02:19;;;;;;;15.63;14.32;;;3.40;53.50;;;;;;21166;6632;333634;-71
2023/03/16 05:04:46;;;;;;;15.50;14.30;;;3.80;53.00;;;;;;21165;6633;300571;-71
2023/03/16 05:07:11;;;;;;;13.30;12.10;;;4.10;52.60;;;;;;21381;6634;66189;-71
2023/03/16 05:09:37;;;;;;;15.23;13.83;;;3.90;52.50;;;;;;21161;6634;301229;-71
2023/03/16 05:12:04;;;;;;;15.83;14.50;;;4.00;52.10;;;;;;21155;6634;301778;-72
2023/03/16 05:14:30;;;;;;;13.03;11.87;;;4.10;51.20;;;;;;21387;6634;66716;-74
2023/03/16 05:16:55;;;;;;;15.00;13.80;;;4.00;51.10;;;;;;21155;6634;272462;-71
2023/03/16 05:19:21;;;;;;;16.07;14.77;;;4.00;51.00;;;;;;21168;6634;305588;-71
2023/03/16 05:21:47;;;;;;;17.00;15.50;;;4.20;50.70;;;;;;21157;6634;301353;-70
2023/03/16 05:24:12;;;;;;;12.95;11.65;;;4.40;50.20;;;;;;21405;6634;68512;-72
2023/03/16 05:26:38;;;;;;;13.73;12.43;;;3.90;51.30;;;;;;21385;6634;67140;-71
2023/03/16 05:29:05;;;;;;;16.13;14.80;;;3.90;51.30;;;;;;21146;6634;309326;-75
2023/03/16 05:31:32;;;;;;;14.77;13.37;;;3.90;51.70;;;;;;21384;6634;66470;-72
2023/03/16 05:33:56;;;;;;;12.50;11.17;;;3.80;51.80;;;;;;21384;6634;66627;-72
2023/03/16 05:36:23;;;;;;;15.63;14.27;;;3.60;52.20;;;;;;21159;6634;300450;-71
2023/03/16 05:38:49;;;;;;;13.05;11.95;;;3.70;52.10;;;;;;21393;6634;66789;-73
2023/03/16 05:41:17;;;;;;;11.87;10.77;;;3.70;52.00;;;;;;21375;6634;67116;-75
2023/03/16 05:43:42;;;;;;;12.97;11.23;;;3.50;52.40;;;;;;21380;6634;70304;-76
2023/03/16 05:46:07;;;;;;;37.17;27.27;;;3.30;52.70;;;;;;21382;6634;66328;-75
2023/03/16 05:48:34;;;;;;;23.30;21.17;;;3.20;53.00;;;;;;21168;6634;301326;-75
2023/03/16 05:50:58;;;;;;;15.27;13.80;;;3.30;52.60;;;;;;21427;6634;66128;-72
2023/03/16 05:53:27;;;;;;;29.07;26.57;;;3.40;52.50;;;;;;21216;6634;301239;-72
2023/03/16 05:55:53;;;;;;;20.70;18.90;;;3.50;52.50;;;;;;21177;6634;327645;-79
2023/03/16 05:58:18;;;;;;;14.83;13.47;;;3.90;51.70;;;;;;21391;6634;89858;-75
2023/03/16 06:00:44;;;;;;;14.70;13.37;;;3.90;51.70;;;;;;21382;6634;74654;-71
2023/03/16 06:03:09;;;;;;;13.63;12.43;;;3.70;52.30;;;;;;21364;6634;66444;-74
2023/03/16 06:05:36;;;;;;;13.97;12.60;;;3.40;53.40;;;;;;21393;6634;67578;-75
2023/03/16 06:08:01;;;;;;;13.43;12.13;;;3.40;53.30;;;;;;21386;6634;66592;-74
2023/03/16 06:10:27;;;;;;;18.10;16.60;;;3.30;53.70;;;;;;21159;6634;304025;-71
2023/03/16 06:12:52;;;;;;;14.98;13.48;;;3.50;53.40;;;;;;21393;6632;67095;-76
2023/03/16 06:15:18;;;;;;;13.85;12.45;;;3.60;53.30;;;;;;21397;6633;66123;-71
2023/03/16 06:17:44;;;;;;;13.95;12.55;;;3.50;54.10;;;;;;21396;6633;66649;-71
2023/03/16 06:20:56;;;;;;;13.93;12.33;;;3.50;54.10;;;;;;21396;6634;66195;-72
2023/03/16 06:23:21;;;;;;;18.10;16.60;;;3.50;54.40;;;;;;21120;6634;333095;-71
2023/03/16 06:25:47;;;;;;;15.02;13.65;;;3.90;53.40;;;;;;21403;6634;69483;-69
2023/03/16 06:28:12;;;;;;;14.60;13.20;;;4.10;53.20;;;;;;21378;6634;66930;-70
2023/03/16 06:30:38;;;;;;;14.00;12.50;;;4.00;53.30;;;;;;21392;6634;67035;-70
2023/03/16 06:33:03;;;;;;;17.80;16.10;;;3.90;53.50;;;;;;21149;6634;333987;-71
2023/03/16 06:35:30;;;;;;;16.30;14.90;;;4.20;53.30;;;;;;21167;6634;333050;-73
2023/03/16 06:37:57;;;;;;;14.25;13.15;;;4.60;52.40;;;;;;21161;6634;329040;-73
2023/03/16 06:40:23;;;;;;;12.70;11.70;;;5.10;51.50;;;;;;21164;6634;334351;-73
2023/03/16 06:42:49;;;;;;;12.20;11.30;;;5.40;50.60;;;;;;21156;6634;298718;-74
2023/03/16 06:45:21;;;;;;;11.80;11.00;;;5.80;49.90;;;;;;21159;6634;292902;-74
2023/03/16 06:47:42;;;;;;;11.40;10.50;;;6.10;48.80;;;;;;21123;6634;271566;-72
2023/03/16 06:50:07;;;;;;;10.63;9.82;;;6.30;48.30;;;;;;21382;6634;66580;-74
2023/03/16 06:52:32;;;;;;;9.03;8.40;;;6.30;48.80;;;;;;21320;6651;67044;-75
2023/03/16 06:54:58;;;;;;;9.98;9.07;;;5.90;51.10;;;;;;21360;6642;66838;-82
2023/03/16 06:57:24;;;;;;;9.70;9.00;;;5.80;50.20;;;;;;21376;6636;67078;-74
2023/03/16 06:59:49;;;;;;;9.35;8.60;;;5.70;50.60;;;;;;21327;6653;66883;-76
2023/03/16 07:02:15;;;;;;;9.87;8.97;;;5.60;51.20;;;;;;21380;6634;66605;-74
2023/03/16 07:04:40;;;;;;;11.80;10.80;;;5.60;51.50;;;;;;21123;6651;302020;-73
2023/03/16 07:07:06;;;;;;;11.07;10.23;;;5.80;51.00;;;;;;21103;6651;330983;-74
2023/03/16 07:09:31;;;;;;;10.20;9.50;;;6.30;49.50;;;;;;21331;6651;66388;-77
2023/03/16 07:11:57;;;;;;;11.63;10.75;;;6.40;49.80;;;;;;21138;6642;300978;-77
2023/03/16 07:14:25;;;;;;;10.07;9.38;;;6.70;50.10;;;;;;21364;6636;67197;-74
2023/03/16 07:16:49;;;;;;;8.20;7.67;;;6.70;49.60;;;;;;21320;6653;66361;-73
2023/03/16 07:19:14;;;;;;;8.87;8.17;;;6.60;50.10;;;;;;21381;6634;66558;-73
2023/03/16 07:21:40;;;;;;;8.65;7.95;;;6.50;50.50;;;;;;21326;6651;66789;-73
2023/03/16 07:24:06;;;;;;;10.32;9.63;;;6.50;51.00;;;;;;21149;6636;333582;-73
2023/03/16 07:26:34;;;;;;;9.82;9.13;;;6.70;49.30;;;;;;21378;6633;74973;-73
2023/03/16 07:29:02;;;;;;;10.32;9.65;;;7.20;48.80;;;;;;21112;6651;273011;-74
2023/03/16 07:31:26;;;;;;;9.30;8.47;;;7.20;48.70;;;;;;21312;6651;69675;-74
2023/03/16 07:33:52;;;;;;;8.37;7.80;;;7.40;49.10;;;;;;21339;6651;70719;-74
2023/03/16 07:36:18;;;;;;;9.07;8.37;;;7.30;49.80;;;;;;21324;6651;66856;-72
2023/03/16 07:38:43;;;;;;;10.82;10.02;;;7.30;49.70;;;;;;21135;6642;329637;-73
2023/03/16 07:41:09;;;;;;;11.13;10.33;;;7.60;48.80;;;;;;21155;6636;301319;-73
2023/03/16 07:43:35;;;;;;;10.48;9.73;;;8.00;48.40;;;;;;21366;6638;66908;-73
2023/03/16 07:46:00;;;;;;;12.57;11.68;;;8.10;48.50;;;;;;21113;6651;331098;-73
2023/03/16 07:48:26;;;;;;;9.93;9.30;;;8.30;48.30;;;;;;21323;6653;66687;-72
2023/03/16 07:50:53;;;;;;;9.57;8.93;;;8.20;48.20;;;;;;21418;6624;69844;-71
2023/03/16 07:53:18;;;;;;;9.90;9.10;;;8.10;48.80;;;;;;21305;6651;66854;-72
2023/03/16 07:55:43;;;;;;;10.23;9.43;;;8.00;49.40;;;;;;21367;6642;72070;-73
2023/03/16 07:58:09;;;;;;;10.95;10.25;;;8.20;49.30;;;;;;21157;6636;300613;-73
2023/03/16 08:00:35;;;;;;;9.97;9.30;;;8.20;49.30;;;;;;21365;6638;66783;-73
2023/03/16 08:03:01;;;;;;;9.70;9.07;;;8.40;49.30;;;;;;21331;6651;66820;-72
2023/03/16 08:05:26;;;;;;;10.57;9.80;;;8.40;49.50;;;;;;21108;6651;330983;-73
2023/03/16 08:07:52;;;;;;;10.07;9.35;;;8.60;48.30;;;;;;21328;6651;70793;-73
2023/03/16 08:10:17;;;;;;;10.67;9.97;;;8.70;48.50;;;;;;21106;6651;331014;-72
2023/03/16 08:12:44;;;;;;;11.10;10.20;;;8.80;47.40;;;;;;21309;6651;66803;-71
2023/03/16 08:15:10;;;;;;;12.23;11.43;;;8.90;47.70;;;;;;21094;6653;304376;-72
2023/03/16 08:17:36;;;;;;;9.70;9.10;;;9.10;47.30;;;;;;21409;6624;66633;-73
2023/03/16 08:20:02;;;;;;;7.93;7.40;;;9.30;47.70;;;;;;21332;6651;66034;-71
2023/03/16 08:22:27;;;;;;;10.40;9.70;;;9.20;48.30;;;;;;21088;6651;334983;-73
2023/03/16 08:24:52;;;;;;;9.07;8.47;;;9.40;47.30;;;;;;21333;6651;68597;-73
2023/03/16 08:27:19;;;;;;;11.00;10.30;;;9.50;47.50;;;;;;21139;6642;301456;-75
2023/03/16 08:29:43;;;;;;;9.30;8.60;;;9.70;47.20;;;;;;21372;6636;66944;-73
2023/03/16 08:32:09;;;;;;;10.88;10.07;;;9.90;47.50;;;;;;21100;6653;294474;-75
2023/03/16 08:34:35;;;;;;;9.60;8.93;;;10.10;45.30;;;;;;21382;6634;66245;-75
2023/03/16 08:37:00;;;;;;;11.15;10.35;;;10.10;45.50;;;;;;21163;6636;272876;-73
2023/03/16 08:39:27;;;;;;;11.03;10.33;;;10.30;45.40;;;;;;21187;6633;270943;-77
2023/03/16 08:41:52;;;;;;;10.07;9.27;;;10.60;44.00;;;;;;21376;6634;66121;-73
2023/03/16 08:44:18;;;;;;;9.65;9.05;;;10.60;44.60;;;;;;21339;6651;74864;-74
2023/03/16 08:46:43;;;;;;;9.20;8.50;;;10.50;45.40;;;;;;21331;6651;67202;-72
2023/03/16 08:49:09;;;;;;;9.33;8.73;;;10.50;46.00;;;;;;21345;6651;67642;-71
2023/03/16 08:51:34;;;;;;;8.57;8.07;;;10.40;46.60;;;;;;21325;6651;72141;-72
2023/03/16 08:54:00;;;;;;;10.27;9.40;;;10.50;47.70;;;;;;21336;6651;66360;-72
2023/03/16 08:56:29;;;;;;;9.27;8.43;;;10.40;47.10;;;;;;21334;6651;66338;-72
2023/03/16 08:58:53;;;;;;;8.97;8.37;;;10.50;47.40;;;;;;21313;6651;66738;-73
2023/03/16 09:01:19;;;;;;;9.50;8.47;;;10.60;47.50;;;;;;21349;6642;66728;-73
2023/03/16 09:03:45;;;;;;;8.83;8.17;;;10.80;47.50;;;;;;21372;6636;66208;-73
2023/03/16 09:06:12;;;;;;;11.98;11.07;;;11.10;44.60;;;;;;21118;6651;300655;-75
2023/03/16 09:08:40;;;;;;;12.57;11.60;;;11.10;44.50;;;;;;21104;6651;301212;-76
2023/03/16 09:11:06;;;;;;;10.50;9.70;;;11.60;43.00;;;;;;21097;6651;302757;-73
2023/03/16 09:13:32;;;;;;;11.13;10.17;;;12.40;42.60;;;;;;21106;6651;306475;-73
2023/03/16 09:15:58;;;;;;;10.90;10.10;;;12.30;41.90;;;;;;21113;6651;272895;-72
2023/03/16 09:18:24;;;;;;;7.70;7.20;;;12.60;41.10;;;;;;21106;6651;272138;-73
2023/03/16 09:20:48;;;;;;;7.32;6.72;;;12.90;38.10;;;;;;21323;6651;67122;-73
2023/03/16 09:23:14;;;;;;;6.85;6.30;;;12.80;39.40;;;;;;21105;6651;301479;-73
2023/03/16 09:25:39;;;;;;;5.47;5.07;;;12.90;37.70;;;;;;21340;6651;67550;-76
2023/03/16 09:28:05;;;;;;;6.30;5.80;;;12.90;39.10;;;;;;21101;6651;300973;-73
2023/03/16 09:30:31;;;;;;;5.78;5.37;;;12.90;36.90;;;;;;21333;6651;66660;-72
2023/03/16 09:32:56;;;;;;;6.70;6.20;;;12.90;38.00;;;;;;21104;6651;272032;-69
2023/03/16 09:35:22;;;;;;;7.72;7.12;;;13.10;37.10;;;;;;21116;6651;307537;-72
2023/03/16 09:37:48;;;;;;;7.97;7.47;;;13.40;36.70;;;;;;21111;6651;301881;-72
2023/03/16 09:40:17;;;;;;;8.00;7.50;;;13.60;36.60;;;;;;21148;6638;276602;-71
2023/03/16 09:42:45;;;;;;;7.20;6.70;;;13.60;37.50;;;;;;21348;6634;74383;-71
2023/03/16 09:45:33;;;;;;;7.43;6.93;;;13.60;37.50;;;;;;21099;6651;329765;-72
2023/03/16 09:47:59;;;;;;;5.47;5.17;;;13.60;37.60;;;;;;21147;6650;66343;-72
2023/03/16 09:50:28;;;;;;;5.90;5.30;;;13.50;38.60;;;;;;21334;6651;66717;-73
2023/03/16 09:53:17;;;;;;;6.37;5.95;;;13.40;38.80;;;;;;21130;6638;337743;-72
2023/03/16 09:55:42;;;;;;;9.73;9.03;;;13.40;38.00;;;;;;21392;6634;66502;-72
2023/03/16 09:58:15;;;;;;;8.30;7.70;;;13.40;37.70;;;;;;21086;6651;301128;-72
2023/03/16 10:00:40;;;;;;;6.10;5.63;;;13.50;37.30;;;;;;21330;6651;71597;-71
2023/03/16 10:03:20;;;;;;;6.75;6.25;;;13.50;38.00;;;;;;21062;6653;305902;-73
2023/03/16 10:05:45;;;;;;;7.40;6.83;;;13.50;36.50;;;;;;21360;6634;66813;-72
2023/03/16 10:08:20;;;;;;;7.32;6.93;;;13.50;37.70;;;;;;21089;6651;272441;-72
2023/03/16 10:10:58;;;;;;;7.12;6.62;;;13.50;35.80;;;;;;21101;6651;320253;-72
2023/03/16 10:13:51;;;;;;;6.90;6.40;;;13.90;34.70;;;;;;20666;6654;302919;-72
2023/03/16 10:16:29;;;;;;;6.68;6.28;;;13.90;34.80;;;;;;21148;6636;272682;-71
2023/03/16 10:19:18;;;;;;;7.10;6.60;;;14.10;35.20;;;;;;21089;6651;284452;-71
2023/03/16 10:21:44;;;;;;;7.10;6.60;;;14.30;34.70;;;;;;21103;6651;296351;-72
2023/03/16 10:24:26;;;;;;;6.60;6.00;;;14.30;34.70;;;;;;21309;6651;66789;-72
2023/03/16 10:26:58;;;;;;;6.67;5.90;;;14.20;36.20;;;;;;21351;6638;66806;-70
2023/03/16 10:29:20;;;;;;;7.37;6.77;;;13.90;37.50;;;;;;21144;6634;300782;-72
2023/03/16 10:31:47;;;;;;;6.70;6.28;;;14.10;38.10;;;;;;21384;6634;67119;-71
2023/03/16 10:34:14;;;;;;;4.23;3.93;;;14.10;38.10;;;;;;21384;6634;66171;-70
2023/03/16 10:36:38;;;;;;;4.00;3.70;;;14.00;38.20;;;;;;21337;6651;67201;-69
2023/03/16 10:39:07;;;;;;;3.70;3.43;;;13.90;38.20;;;;;;21313;6651;66702;-71
2023/03/16 10:41:32;;;;;;;4.20;4.00;;;13.90;38.40;;;;;;21140;6636;272276;-69
2023/03/16 10:44:15;;;;;;;5.40;5.00;;;14.10;35.40;;;;;;21145;6636;276546;-70
2023/03/16 10:46:52;;;;;;;5.00;4.60;;;14.40;35.00;;;;;;21310;6651;73593;-71
2023/03/16 10:49:28;;;;;;;3.90;3.70;;;14.50;36.30;;;;;;21119;6642;305339;-72
2023/03/16 10:51:53;;;;;;;3.10;2.90;;;14.60;32.50;;;;;;21267;6636;66634;-70
2023/03/16 10:54:23;;;;;;;2.80;2.60;;;14.60;34.00;;;;;;21328;6651;66964;-72
2023/03/16 10:56:49;;;;;;;3.30;3.00;;;14.40;34.70;;;;;;21111;6651;272479;-71
2023/03/16 10:59:14;;;;;;;3.12;2.92;;;14.50;31.70;;;;;;21333;6649;66357;-72
2023/03/16 11:01:39;;;;;;;2.17;2.07;;;14.60;33.60;;;;;;21326;6651;67115;-72
2023/03/16 11:04:05;;;;;;;2.95;2.75;;;14.70;32.80;;;;;;21096;6651;302356;-68
2023/03/16 11:06:31;;;;;;;2.60;2.40;;;14.70;32.10;;;;;;21291;6651;66858;-70
2023/03/16 11:09:07;;;;;;;2.53;2.43;;;14.80;34.80;;;;;;21332;6651;69993;-69
2023/03/16 11:11:34;;;;;;;2.87;2.50;;;14.70;34.00;;;;;;21293;6653;74155;-68
2023/03/16 11:13:59;;;;;;;2.92;2.72;;;14.60;34.40;;;;;;21150;6634;330438;-70
2023/03/16 11:16:42;;;;;;;2.73;2.53;;;14.80;31.40;;;;;;21300;6651;67703;-71
2023/03/16 11:19:23;;;;;;;2.77;2.67;;;14.80;32.90;;;;;;21135;6638;300959;-71
2023/03/16 11:21:53;;;;;;;2.53;2.33;;;15.00;32.30;;;;;;21369;6634;66167;-72
2023/03/16 11:24:19;;;;;;;2.00;1.90;;;15.10;33.80;;;;;;21087;6651;273304;-72
2023/03/16 11:26:45;;;;;;;1.90;1.80;;;15.20;31.10;;;;;;20973;6651;301089;-70
2023/03/16 11:29:10;;;;;;;3.15;1.73;;;15.50;30.70;;;;;;21083;6651;311433;-73
2023/03/16 11:31:38;;;;;;;1.87;1.77;;;15.70;29.40;;;;;;21296;6651;77996;-73
2023/03/16 11:34:01;;;;;;;1.70;1.60;;;15.70;30.70;;;;;;21315;6651;66359;-71
2023/03/16 11:36:47;;;;;;;2.35;2.15;;;15.50;31.40;;;;;;21325;6651;66768;-70
2023/03/16 11:39:36;;;;;;;2.10;2.00;;;15.20;31.30;;;;;;19783;7016;315614;-71
2023/03/16 11:42:20;;;;;;;2.00;1.90;;;15.20;28.70;;;;;;19974;7010;288501;-70
2023/03/16 11:45:12;;;;;;;2.15;1.87;;;15.50;28.90;;;;;;20356;6649;304243;-69
2023/03/16 11:47:57;;;;;;;2.05;1.95;;;15.70;29.70;;;;;;21087;6649;290032;-70
2023/03/16 11:50:34;;;;;;;1.60;1.60;;;15.80;29.90;;;;;;21322;6651;67177;-70
2023/03/16 11:53:00;;;;;;;1.77;1.67;;;15.80;29.90;;;;;;20578;6654;66702;-70
2023/03/16 11:56:02;;;;;;;2.20;2.10;;;15.60;30.80;;;;;;21144;6636;272969;-70
2023/03/16 11:58:37;;;;;;;2.53;2.42;;;15.60;28.40;;;;;;21107;6653;274528;-72
2023/03/16 12:01:24;;;;;;;2.50;2.30;;;15.60;28.80;;;;;;21356;6634;67062;-73
2023/03/16 12:04:06;;;;;;;1.80;1.70;;;15.50;28.70;;;;;;21388;6634;66130;-74
2023/03/16 12:06:58;;;;;;;2.30;2.20;;;15.20;29.70;;;;;;21072;6651;273299;-71
2023/03/16 12:09:44;;;;;;;2.30;2.20;;;15.30;28.80;;;;;;21148;6636;330037;-73
2023/03/16 12:12:28;;;;;;;2.83;2.20;;;15.50;29.40;;;;;;21147;6635;305694;-72
2023/03/16 12:14:59;;;;;;;2.60;2.40;;;15.80;27.50;;;;;;21143;6636;300893;-72
2023/03/16 12:17:25;;;;;;;2.40;2.30;;;16.00;26.90;;;;;;21154;6636;271682;-72
2023/03/16 12:20:00;;;;;;;2.47;2.37;;;16.10;26.80;;;;;;21083;6651;302940;-72
2023/03/16 12:22:29;;;;;;;2.50;2.30;;;16.10;26.80;;;;;;21113;6636;307907;-71
2023/03/16 12:24:54;;;;;;;2.30;2.20;;;16.10;26.80;;;;;;21320;6651;66425;-71
2023/03/16 12:27:23;;;;;;;2.83;2.63;;;15.90;28.30;;;;;;21311;6651;67272;-71
2023/03/16 12:29:55;;;;;;;2.80;2.60;;;15.60;28.70;;;;;;21102;6651;272395;-72
2023/03/16 12:32:24;;;;;;;2.70;2.60;;;15.50;26.90;;;;;;21141;6631;289763;-72
2023/03/16 12:34:50;;;;;;;2.60;2.40;;;15.70;26.80;;;;;;21315;6651;66843;-71
2023/03/16 12:37:21;;;;;;;2.23;2.03;;;15.50;28.00;;;;;;21140;6636;324492;-70
2023/03/16 12:39:50;;;;;;;2.30;2.08;;;15.40;26.70;;;;;;21078;6651;301462;-71
2023/03/16 12:42:35;;;;;;;2.12;2.03;;;15.50;26.70;;;;;;21101;6651;305984;-70